Time;durP1;ratioP1;P1;durP2;ratioP2;P2;SDS_P1;SDS_P2;PMS_P1;PMS_P2;Temp;Humidity;BMP_temperature;BMP_pressure;BME280_temperature;BME280_humidity;BME280_pressure;Samples;Min_cycle;Max_cycle;Signal;HPM_P1;HPM_P2
2023/04/06 00:00:04;;;;;;;;;;;;;;;;;;4920000;29;19923;-81
2023/04/06 00:02:35;;;;;;;;;;;;;;;;;;4921175;29;20087;-84
2023/04/06 00:05:00;;;;;;;;;;;;;;;;;;4926280;29;20646;-82
2023/04/06 00:07:27;;;;;;;;;;;;;;;;;;4914026;29;19916;-84
2023/04/06 00:09:53;;;;;;;;;;;;;;;;;;4916253;29;19939;-82
2023/04/06 00:12:19;;;;;;;;;;;;;;;;;;4905083;29;19919;-82
2023/04/06 00:14:44;;;;;;;;;;;;;;;;;;4937390;29;19954;-82
2023/04/06 00:17:10;;;;;;;;;;;;;;;;;;4936887;29;19919;-83
2023/04/06 00:19:35;;;;;;;;;;;;;;;;;;4936880;29;19986;-83
2023/04/06 00:22:03;;;;;;;;;;;;;;;;;;4935728;29;19922;-82
2023/04/06 00:24:29;;;;;;;;;;;;;;;;;;4917271;29;20303;-83
2023/04/06 00:26:55;;;;;;;;;;;;;;;;;;4891136;29;19915;-81
2023/04/06 00:29:20;;;;;;;;;;;;;;;;;;4934194;29;19915;-82
2023/04/06 00:31:46;;;;;;;;;;;;;;;;;;4938695;29;19915;-83
2023/04/06 00:34:11;;;;;;;;;;;;;;;;;;4922267;29;19975;-82
2023/04/06 00:36:37;;;;;;;;;;;;;;;;;;4905575;29;19920;-83
2023/04/06 00:39:03;;;;;;;;;;;;;;;;;;4934524;29;19915;-82
2023/04/06 00:41:28;;;;;;;;;;;;;;;;;;4932834;29;19926;-82
2023/04/06 00:43:54;;;;;;;;;;;;;;;;;;4918071;29;19922;-83
2023/04/06 00:46:20;;;;;;;;;;;;;;;;;;4931113;29;20458;-82
2023/04/06 00:48:45;;;;;;;;;;;;;;;;;;4914734;29;19940;-83
2023/04/06 00:51:11;;;;;;;;;;;;;;;;;;4899911;29;19915;-82
2023/04/06 00:53:37;;;;;;;;;;;;;;;;;;4885414;29;19923;-83
2023/04/06 00:56:03;;;;;;;;;;;;;;;;;;4917308;29;19916;-81
2023/04/06 00:58:37;;;;;;;;;;;;;;;;;;4922975;29;19919;-83
2023/04/06 01:01:05;;;;;;;;;;;;;;;;;;4919853;29;19915;-81
2023/04/06 01:03:32;;;;;;;;;;;;;;;;;;4923614;29;19911;-83
2023/04/06 01:05:58;;;;;;;;;;;;;;;;;;4916940;29;19916;-82
2023/04/06 01:08:28;;;;;;;;;;;;;;;;;;4921268;29;19903;-83
2023/04/06 01:11:07;;;;;;;;;;;;;;;;;;4909699;29;19923;-83
2023/04/06 01:13:33;;;;;;;;;;;;;;;;;;4898787;29;19912;-82
2023/04/06 01:16:01;;;;;;;;;;;;;;;;;;4884864;29;19919;-82
2023/04/06 01:18:59;;;;;;;;;;;;;;;;;;4906050;29;19919;-83
2023/04/06 01:21:28;;;;;;;;;;;;;;;;;;4901911;29;19941;-83
2023/04/06 01:24:07;;;;;;;;;;;;;;;;;;4903527;29;19923;-82
2023/04/06 01:26:46;;;;;;;;;;;;;;;;;;4927116;29;19983;-82
2023/04/06 01:29:12;;;;;;;;;;;;;;;;;;4926452;29;19970;-82
2023/04/06 01:31:37;;;;;;;;;;;;;;;;;;4936246;29;19942;-82
2023/04/06 01:34:03;;;;;;;;;;;;;;;;;;4901043;29;19924;-82
2023/04/06 01:36:29;;;;;;;;;;;;;;;;;;4876186;29;19930;-82
2023/04/06 01:39:07;;;;;;;;;;;;;;;;;;4919047;29;19916;-82
2023/04/06 01:41:35;;;;;;;;;;;;;;;;;;4927837;29;19922;-81
2023/04/06 01:44:01;;;;;;;;;;;;;;;;;;4909181;29;19911;-81
2023/04/06 01:46:28;;;;;;;;;;;;;;;;;;4905496;29;19915;-83
2023/04/06 01:48:54;;;;;;;;;;;;;;;;;;4896882;29;19940;-82
2023/04/06 01:51:29;;;;;;;;;;;;;;;;;;4891558;29;19916;-81
2023/04/06 01:53:58;;;;;;;;;;;;;;;;;;4886957;29;19923;-81
2023/04/06 01:56:33;;;;;;;;;;;;;;;;;;4921501;29;19958;-82
2023/04/06 01:59:06;;;;;;;;;;;;;;;;;;4908814;29;19915;-82
2023/04/06 02:01:37;;;;;;;;;;;;;;;;;;4922191;29;19916;-82
2023/04/06 02:04:02;;;;;;;;;;;;;;;;;;4917570;29;19915;-82
2023/04/06 02:06:28;;;;;;;;;;;;;;;;;;4904869;29;19919;-81
2023/04/06 02:08:54;;;;;;;;;;;;;;;;;;4930009;29;19923;-81
2023/04/06 02:11:19;;;;;;;;;;;;;;;;;;4930698;29;19982;-82
2023/04/06 02:13:48;;;;;;;;;;;;;;;;;;4918765;29;19915;-82
2023/04/06 02:16:15;;;;;;;;;;;;;;;;;;4913893;29;19915;-82
2023/04/06 02:18:42;;;;;;;;;;;;;;;;;;4883084;29;19919;-82
2023/04/06 02:21:07;;;;;;;;;;;;;;;;;;4900606;29;19950;-82
2023/04/06 02:23:33;;;;;;;;;;;;;;;;;;4888261;29;19921;-80
2023/04/06 02:25:59;;;;;;;;;;;;;;;;;;4905847;29;19903;-82
2023/04/06 02:28:24;;;;;;;;;;;;;;;;;;4941337;29;19954;-82
2023/04/06 02:30:50;;;;;;;;;;;;;;;;;;4934518;29;19923;-82
2023/04/06 02:33:16;;;;;;;;;;;;;;;;;;4891475;29;19954;-82
2023/04/06 02:35:45;;;;;;;;;;;;;;;;;;4923396;29;19916;-82
2023/04/06 02:38:11;;;;;;;;;;;;;;;;;;4908008;29;19915;-82
2023/04/06 02:40:37;;;;;;;;;;;;;;;;;;4923313;29;19911;-81
2023/04/06 02:43:16;;;;;;;;;;;;;;;;;;4921378;29;19920;-82
2023/04/06 02:45:42;;;;;;;;;;;;;;;;;;4891179;29;19958;-82
2023/04/06 02:48:09;;;;;;;;;;;;;;;;;;4899622;29;19900;-81
2023/04/06 02:50:35;;;;;;;;;;;;;;;;;;4890907;29;19916;-83
2023/04/06 02:53:04;;;;;;;;;;;;;;;;;;4892017;29;19915;-82
2023/04/06 02:55:30;;;;;;;;;;;;;;;;;;4914846;29;19922;-82
2023/04/06 02:57:55;;;;;;;;;;;;;;;;;;4896468;29;19924;-82
2023/04/06 03:00:26;;;;;;;;;;;;;;;;;;4904623;29;19922;-81
2023/04/06 03:02:51;;;;;;;;;;;;;;;;;;4887607;29;19915;-81
2023/04/06 03:05:17;;;;;;;;;;;;;;;;;;4872774;29;19966;-81
2023/04/06 03:07:44;;;;;;;;;;;;;;;;;;4873628;29;19916;-82
2023/04/06 03:10:17;;;;;;;;;;;;;;;;;;4881132;29;19916;-83
2023/04/06 03:12:44;;;;;;;;;;;;;;;;;;4882314;29;19972;-83
2023/04/06 03:15:21;;;;;;;;;;;;;;;;;;4868094;29;19907;-83
2023/04/06 03:17:51;;;;;;;;;;;;;;;;;;4900857;29;19920;-83
2023/04/06 03:20:40;;;;;;;;;;;;;;;;;;4901164;29;19920;-82
2023/04/06 03:23:05;;;;;;;;;;;;;;;;;;4885109;29;19926;-82
2023/04/06 03:25:35;;;;;;;;;;;;;;;;;;4886560;29;19915;-82
2023/04/06 03:28:03;;;;;;;;;;;;;;;;;;4919977;29;19935;-83
2023/04/06 03:30:31;;;;;;;;;;;;;;;;;;4935840;29;19911;-82
2023/04/06 03:32:56;;;;;;;;;;;;;;;;;;4920932;29;19963;-83
2023/04/06 03:35:25;;;;;;;;;;;;;;;;;;4916013;29;19922;-82
2023/04/06 03:37:50;;;;;;;;;;;;;;;;;;4924158;29;19923;-82
2023/04/06 03:40:16;;;;;;;;;;;;;;;;;;4921944;29;19946;-83
2023/04/06 03:42:41;;;;;;;;;;;;;;;;;;4923445;29;19946;-82
2023/04/06 03:45:13;;;;;;;;;;;;;;;;;;4910208;29;19923;-82
2023/04/06 03:47:44;;;;;;;;;;;;;;;;;;4931106;28;20009;-83
2023/04/06 03:50:09;;;;;;;;;;;;;;;;;;4940894;28;19922;-83
2023/04/06 03:52:35;;;;;;;;;;;;;;;;;;4935891;29;19926;-82
2023/04/06 03:55:01;;;;;;;;;;;;;;;;;;4935626;29;19922;-83
2023/04/06 03:57:26;;;;;;;;;;;;;;;;;;4932266;29;19924;-83
2023/04/06 03:59:52;;;;;;;;;;;;;;;;;;4935495;29;19926;-84
2023/04/06 04:02:17;;;;;;;;;;;;;;;;;;4920027;29;20001;-83
2023/04/06 04:04:43;;;;;;;;;;;;;;;;;;4923323;29;19922;-83
2023/04/06 04:07:08;;;;;;;;;;;;;;;;;;4933440;29;19916;-81
2023/04/06 04:09:34;;;;;;;;;;;;;;;;;;4918593;29;20479;-82
2023/04/06 04:11:59;;;;;;;;;;;;;;;;;;4894347;29;20261;-82
2023/04/06 04:14:25;;;;;;;;;;;;;;;;;;4913564;29;19946;-82
2023/04/06 04:16:50;;;;;;;;;;;;;;;;;;4929532;29;20434;-82
2023/04/06 04:19:17;;;;;;;;;;;;;;;;;;4932657;29;19915;-83
2023/04/06 04:21:43;;;;;;;;;;;;;;;;;;4938179;29;19955;-84
2023/04/06 04:24:09;;;;;;;;;;;;;;;;;;4922553;29;19970;-83
2023/04/06 04:26:35;;;;;;;;;;;;;;;;;;4909924;29;19922;-83
2023/04/06 04:29:01;;;;;;;;;;;;;;;;;;4939989;29;19915;-82
2023/04/06 04:31:26;;;;;;;;;;;;;;;;;;4907479;29;19998;-82
2023/04/06 04:33:56;;;;;;;;;;;;;;;;;;4883997;29;19920;-82
2023/04/06 04:36:27;;;;;;;;;;;;;;;;;;4906563;29;19961;-82
2023/04/06 04:38:54;;;;;;;;;;;;;;;;;;4933436;29;19930;-83
2023/04/06 04:41:20;;;;;;;;;;;;;;;;;;4930640;29;19919;-82
2023/04/06 04:43:46;;;;;;;;;;;;;;;;;;4882044;29;19915;-81
2023/04/06 04:46:17;;;;;;;;;;;;;;;;;;4877696;29;20515;-81
2023/04/06 04:48:43;;;;;;;;;;;;;;;;;;4889524;29;20280;-81
2023/04/06 04:51:08;;;;;;;;;;;;;;;;;;4907579;29;19915;-83
2023/04/06 04:53:46;;;;;;;;;;;;;;;;;;4895759;29;19916;-83
2023/04/06 04:56:20;;;;;;;;;;;;;;;;;;4922345;29;19920;-83
2023/04/06 04:58:48;;;;;;;;;;;;;;;;;;4918674;29;19919;-82
2023/04/06 05:01:14;;;;;;;;;;;;;;;;;;4909270;29;19962;-83
2023/04/06 05:03:41;;;;;;;;;;;;;;;;;;4885550;29;19915;-83
2023/04/06 05:06:11;;;;;;;;;;;;;;;;;;4916119;29;19923;-82
2023/04/06 05:08:38;;;;;;;;;;;;;;;;;;4923432;29;19951;-81
2023/04/06 05:11:04;;;;;;;;;;;;;;;;;;4936223;29;19939;-82
2023/04/06 05:13:34;;;;;;;;;;;;;;;;;;4906227;29;19916;-82
2023/04/06 05:16:05;;;;;;;;;;;;;;;;;;4917433;29;19923;-83
2023/04/06 05:18:32;;;;;;;;;;;;;;;;;;4935995;29;19926;-83
2023/04/06 05:20:58;;;;;;;;;;;;;;;;;;4927953;29;19990;-82
2023/04/06 05:23:38;;;;;;;;;;;;;;;;;;4917750;29;19916;-83
2023/04/06 05:26:04;;;;;;;;;;;;;;;;;;4934911;29;19916;-82
2023/04/06 05:28:31;;;;;;;;;;;;;;;;;;4912431;29;19916;-81
2023/04/06 05:30:56;;;;;;;;;;;;;;;;;;4897096;29;19922;-82
2023/04/06 05:33:22;;;;;;;;;;;;;;;;;;4918899;29;19926;-82
2023/04/06 05:36:10;;;;;;;;;;;;;;;;;;4901559;29;19927;-82
2023/04/06 05:38:39;;;;;;;;;;;;;;;;;;4927574;29;19966;-82
2023/04/06 05:41:15;;;;;;;;;;;;;;;;;;4914439;29;19922;-82
2023/04/06 05:43:41;;;;;;;;;;;;;;;;;;4911529;29;19940;-82
2023/04/06 05:46:07;;;;;;;;;;;;;;;;;;4915647;29;19916;-82
2023/04/06 05:48:32;;;;;;;;;;;;;;;;;;4897637;29;20384;-82
2023/04/06 05:50:58;;;;;;;;;;;;;;;;;;4913832;29;19915;-82
2023/04/06 05:53:31;;;;;;;;;;;;;;;;;;4910143;29;19915;-81
2023/04/06 05:55:59;;;;;;;;;;;;;;;;;;4912836;29;19919;-81
2023/04/06 05:58:26;;;;;;;;;;;;;;;;;;4919834;29;19903;-82
2023/04/06 06:00:53;;;;;;;;;;;;;;;;;;4907231;29;19939;-81
2023/04/06 06:03:19;;;;;;;;;;;;;;;;;;4924267;29;19976;-82
2023/04/06 06:05:50;;;;;;;;;;;;;;;;;;4939090;29;19931;-83
2023/04/06 06:08:22;;;;;;;;;;;;;;;;;;4941020;29;19903;-83
2023/04/06 06:10:50;;;;;;;;;;;;;;;;;;4940941;29;19926;-83
2023/04/06 06:13:18;;;;;;;;;;;;;;;;;;4942047;28;19974;-83
2023/04/06 06:15:43;;;;;;;;;;;;;;;;;;4942494;28;19910;-81
2023/04/06 06:18:12;;;;;;;;;;;;;;;;;;5412278;23;19920;-80
2023/04/06 06:20:38;;;;;;;;;;;;;;;;;;4923282;29;19920;-81
2023/04/06 06:23:07;;;;;;;;;;;;;;;;;;4922451;29;19915;-81
2023/04/06 06:30:59;;;;;;;;;;;;;;;;;;5092881;23;19942;-81
2023/04/06 06:33:26;;;;;;;;;;;;;;;;;;4925996;29;19923;-82
2023/04/06 06:35:53;;;;;;;;;;;;;;;;;;4946946;23;19978;-78
2023/04/06 06:38:18;;;;;;;;;;;;;;;;;;4952140;29;20338;-80
2023/04/06 06:40:44;;;;;;;;;;;;;;;;;;4927214;29;20009;-79
2023/04/06 06:43:09;;;;;;;;;;;;;;;;;;4946935;28;20005;-80
2023/04/06 06:45:55;;;;;;;;;;;;;;;;;;4947394;29;19921;-80
2023/04/06 06:48:21;;;;;;;;;;;;;;;;;;4902449;29;19915;-80
2023/04/06 06:50:46;;;;;;;;;;;;;;;;;;4917645;29;19915;-80
2023/04/06 06:53:12;;;;;;;;;;;;;;;;;;4918548;29;19922;-80
2023/04/06 06:55:37;;;;;;;;;;;;;;;;;;4931609;29;19938;-80
2023/04/06 06:58:02;;;;;;;;;;;;;;;;;;4935827;29;19965;-80
2023/04/06 07:00:28;;;;;;;;;;;;;;;;;;4921989;29;19915;-81
2023/04/06 07:02:53;;;;;;;;;;;;;;;;;;4937023;29;20017;-80
2023/04/06 07:05:19;;;;;;;;;;;;;;;;;;4924983;29;19922;-80
2023/04/06 07:07:44;;;;;;;;;;;;;;;;;;4933524;29;20280;-80
2023/04/06 07:10:10;;;;;;;;;;;;;;;;;;4919055;29;19919;-80
2023/04/06 07:12:37;;;;;;;;;;;;;;;;;;4905935;29;19922;-79
2023/04/06 07:15:02;;;;;;;;;;;;;;;;;;4922224;29;19920;-80
2023/04/06 07:17:28;;;;;;;;;;;;;;;;;;4928898;29;19926;-80
2023/04/06 07:19:53;;;;;;;;;;;;;;;;;;4920454;29;19916;-79
2023/04/06 07:22:19;;;;;;;;;;;;;;;;;;4933447;29;20013;-80
2023/04/06 07:24:44;;;;;;;;;;;;;;;;;;4923581;29;19922;-80
2023/04/06 07:27:10;;;;;;;;;;;;;;;;;;4923600;29;19937;-80
2023/04/06 07:29:35;;;;;;;;;;;;;;;;;;4930827;29;19919;-80
2023/04/06 07:32:01;;;;;;;;;;;;;;;;;;4905311;29;19998;-80
2023/04/06 07:34:26;;;;;;;;;;;;;;;;;;4935857;29;19919;-80
2023/04/06 07:36:55;;;;;;;;;;;;;;;;;;4927621;29;20367;-80
2023/04/06 07:39:20;;;;;;;;;;;;;;;;;;4912563;29;19914;-80
2023/04/06 07:41:46;;;;;;;;;;;;;;;;;;4922407;29;19919;-80
2023/04/06 07:44:12;;;;;;;;;;;;;;;;;;4932761;29;19994;-80
2023/04/06 07:46:37;;;;;;;;;;;;;;;;;;4906690;29;19950;-80
2023/04/06 07:49:04;;;;;;;;;;;;;;;;;;4926443;29;20387;-80
2023/04/06 07:51:31;;;;;;;;;;;;;;;;;;4903785;29;20017;-80
2023/04/06 07:53:57;;;;;;;;;;;;;;;;;;4917369;29;19966;-80
2023/04/06 07:56:22;;;;;;;;;;;;;;;;;;4932294;29;20454;-80
2023/04/06 07:58:48;;;;;;;;;;;;;;;;;;4912757;29;19919;-80
2023/04/06 08:01:13;;;;;;;;;;;;;;;;;;4934276;29;19915;-81
2023/04/06 08:03:42;;;;;;;;;;;;;;;;;;4927835;29;19923;-81
2023/04/06 08:06:07;;;;;;;;;;;;;;;;;;4938559;29;19940;-81
2023/04/06 08:08:33;;;;;;;;;;;;;;;;;;4929201;29;20385;-82
2023/04/06 08:10:58;;;;;;;;;;;;;;;;;;4935634;29;19915;-82
2023/04/06 08:13:24;;;;;;;;;;;;;;;;;;4935942;29;19915;-82
2023/04/06 08:15:49;;;;;;;;;;;;;;;;;;4930340;29;19915;-82
2023/04/06 08:18:15;;;;;;;;;;;;;;;;;;4942334;29;20338;-82
2023/04/06 08:20:40;;;;;;;;;;;;;;;;;;4920569;29;19915;-82
2023/04/06 08:23:10;;;;;;;;;;;;;;;;;;4934816;29;19997;-82
2023/04/06 08:25:36;;;;;;;;;;;;;;;;;;4929340;29;19926;-82
2023/04/06 08:28:02;;;;;;;;;;;;;;;;;;4941314;29;19914;-82
2023/04/06 08:30:27;;;;;;;;;;;;;;;;;;4940580;29;19916;-81
2023/04/06 08:32:53;;;;;;;;;;;;;;;;;;4935654;29;19914;-81
2023/04/06 08:35:18;;;;;;;;;;;;;;;;;;4935650;29;20006;-81
2023/04/06 08:37:43;;;;;;;;;;;;;;;;;;4935748;29;19950;-81
2023/04/06 08:40:09;;;;;;;;;;;;;;;;;;4909061;29;19915;-81
2023/04/06 08:42:35;;;;;;;;;;;;;;;;;;4936076;29;19925;-81
2023/04/06 08:45:00;;;;;;;;;;;;;;;;;;4913052;29;19922;-81
2023/04/06 08:47:26;;;;;;;;;;;;;;;;;;4928515;29;20303;-81
2023/04/06 08:49:51;;;;;;;;;;;;;;;;;;4936999;29;20003;-80
2023/04/06 08:52:17;;;;;;;;;;;;;;;;;;4906003;29;19915;-79
2023/04/06 08:54:42;;;;;;;;;;;;;;;;;;4910771;29;20462;-81
2023/04/06 08:57:07;;;;;;;;;;;;;;;;;;4908345;29;19922;-80
2023/04/06 08:59:33;;;;;;;;;;;;;;;;;;4943883;29;20022;-81
2023/04/06 09:01:58;;;;;;;;;;;;;;;;;;4925315;29;19965;-80
2023/04/06 09:04:24;;;;;;;;;;;;;;;;;;4927166;29;19911;-80
2023/04/06 09:06:49;;;;;;;;;;;;;;;;;;4935983;29;19916;-80
2023/04/06 09:09:15;;;;;;;;;;;;;;;;;;4932655;29;20108;-80
2023/04/06 09:11:40;;;;;;;;;;;;;;;;;;4929373;29;20256;-80
2023/04/06 09:14:06;;;;;;;;;;;;;;;;;;4926680;29;19915;-80
2023/04/06 09:16:31;;;;;;;;;;;;;;;;;;4925747;29;19915;-78
2023/04/06 09:18:57;;;;;;;;;;;;;;;;;;4926249;29;20299;-78
2023/04/06 09:21:22;;;;;;;;;;;;;;;;;;4913600;29;19962;-81
2023/04/06 09:23:48;;;;;;;;;;;;;;;;;;4921610;29;19935;-81
2023/04/06 09:26:13;;;;;;;;;;;;;;;;;;4936583;29;19914;-80
2023/04/06 09:28:39;;;;;;;;;;;;;;;;;;4922661;29;19915;-81
2023/04/06 09:31:04;;;;;;;;;;;;;;;;;;4932957;29;19915;-81
2023/04/06 09:33:30;;;;;;;;;;;;;;;;;;4930775;29;20398;-81
2023/04/06 09:35:55;;;;;;;;;;;;;;;;;;4934435;29;19923;-81
2023/04/06 09:38:21;;;;;;;;;;;;;;;;;;4942861;29;20013;-81
2023/04/06 09:40:46;;;;;;;;;;;;;;;;;;4910852;29;20295;-81
2023/04/06 09:43:12;;;;;;;;;;;;;;;;;;4937923;29;19915;-81
2023/04/06 09:45:37;;;;;;;;;;;;;;;;;;4934175;29;20013;-80
2023/04/06 09:48:03;;;;;;;;;;;;;;;;;;4934412;29;19915;-80
2023/04/06 09:50:28;;;;;;;;;;;;;;;;;;4955245;29;20307;-81
2023/04/06 09:52:54;;;;;;;;;;;;;;;;;;4938100;29;19915;-81
2023/04/06 09:55:19;;;;;;;;;;;;;;;;;;4942490;29;20012;-81
2023/04/06 09:57:45;;;;;;;;;;;;;;;;;;4947607;29;19915;-80
2023/04/06 10:00:11;;;;;;;;;;;;;;;;;;4935056;29;19915;-79
2023/04/06 10:02:36;;;;;;;;;;;;;;;;;;4932108;29;19915;-80
2023/04/06 10:05:02;;;;;;;;;;;;;;;;;;4935511;29;20556;-83
2023/04/06 10:07:27;;;;;;;;;;;;;;;;;;4928265;29;19915;-81
2023/04/06 10:09:53;;;;;;;;;;;;;;;;;;4923479;29;19923;-82
2023/04/06 10:12:18;;;;;;;;;;;;;;;;;;4939624;29;20018;-81
2023/04/06 10:14:44;;;;;;;;;;;;;;;;;;4924812;29;19916;-80
2023/04/06 10:17:11;;;;;;;;;;;;;;;;;;4924130;29;19954;-81
2023/04/06 10:19:37;;;;;;;;;;;;;;;;;;4917000;29;20295;-82
2023/04/06 10:22:02;;;;;;;;;;;;;;;;;;4935956;29;19915;-82
2023/04/06 10:24:28;;;;;;;;;;;;;;;;;;4919913;29;20334;-82
2023/04/06 10:26:53;;;;;;;;;;;;;;;;;;4936678;29;20306;-82
2023/04/06 10:29:18;;;;;;;;;;;;;;;;;;4925209;29;19919;-82
2023/04/06 10:31:44;;;;;;;;;;;;;;;;;;4933028;29;19937;-81
2023/04/06 10:34:10;;;;;;;;;;;;;;;;;;4902746;29;20287;-81
2023/04/06 10:36:35;;;;;;;;;;;;;;;;;;4921479;29;20310;-82
2023/04/06 10:39:01;;;;;;;;;;;;;;;;;;4926796;29;19982;-83
2023/04/06 10:41:27;;;;;;;;;;;;;;;;;;4929208;29;19918;-83
2023/04/06 10:43:52;;;;;;;;;;;;;;;;;;4922645;29;20303;-81
2023/04/06 10:46:18;;;;;;;;;;;;;;;;;;4935287;29;19919;-81
2023/04/06 10:48:43;;;;;;;;;;;;;;;;;;4924126;29;20502;-82
2023/04/06 10:51:09;;;;;;;;;;;;;;;;;;4926578;29;20361;-83
2023/04/06 10:53:34;;;;;;;;;;;;;;;;;;4930413;29;19917;-81
2023/04/06 10:56:00;;;;;;;;;;;;;;;;;;4920737;29;20375;-82
2023/04/06 10:58:25;;;;;;;;;;;;;;;;;;4930863;29;20458;-81
2023/04/06 11:00:51;;;;;;;;;;;;;;;;;;4924472;29;20373;-82
2023/04/06 11:03:16;;;;;;;;;;;;;;;;;;4924273;29;20009;-82
2023/04/06 11:05:41;;;;;;;;;;;;;;;;;;4928898;29;19915;-83
2023/04/06 11:08:07;;;;;;;;;;;;;;;;;;4918807;29;19922;-81
2023/04/06 11:10:32;;;;;;;;;;;;;;;;;;4914343;29;19915;-81
2023/04/06 11:12:58;;;;;;;;;;;;;;;;;;4917708;29;20280;-81
2023/04/06 11:15:23;;;;;;;;;;;;;;;;;;4912866;29;20512;-82
2023/04/06 11:17:49;;;;;;;;;;;;;;;;;;4922995;29;20303;-81
2023/04/06 11:20:14;;;;;;;;;;;;;;;;;;4931592;29;19915;-82
2023/04/06 11:22:40;;;;;;;;;;;;;;;;;;4922392;29;19922;-82
2023/04/06 11:25:06;;;;;;;;;;;;;;;;;;4924859;29;19911;-82
2023/04/06 11:27:32;;;;;;;;;;;;;;;;;;4929238;29;19914;-81
2023/04/06 11:29:57;;;;;;;;;;;;;;;;;;4919508;29;19919;-81
2023/04/06 11:32:24;;;;;;;;;;;;;;;;;;4933210;29;19915;-84
2023/04/06 11:34:49;;;;;;;;;;;;;;;;;;4925772;29;20307;-82
2023/04/06 11:37:15;;;;;;;;;;;;;;;;;;4923310;29;19919;-82
2023/04/06 11:39:44;;;;;;;;;;;;;;;;;;4925362;29;20327;-83
2023/04/06 11:42:10;;;;;;;;;;;;;;;;;;4936099;29;20074;-81
2023/04/06 11:44:35;;;;;;;;;;;;;;;;;;4925138;29;20398;-80
2023/04/06 11:47:00;;;;;;;;;;;;;;;;;;4930255;29;19915;-80
2023/04/06 11:49:26;;;;;;;;;;;;;;;;;;4931726;29;19910;-80
2023/04/06 11:51:51;;;;;;;;;;;;;;;;;;4922149;29;19915;-80
2023/04/06 11:54:17;;;;;;;;;;;;;;;;;;4933955;29;20006;-79
2023/04/06 11:56:42;;;;;;;;;;;;;;;;;;4907865;29;19914;-80
2023/04/06 11:59:07;;;;;;;;;;;;;;;;;;4930428;29;19926;-81
2023/04/06 12:01:33;;;;;;;;;;;;;;;;;;4930897;29;19921;-80
2023/04/06 12:03:58;;;;;;;;;;;;;;;;;;4922376;29;19917;-80
2023/04/06 12:06:25;;;;;;;;;;;;;;;;;;4934081;29;19922;-80
2023/04/06 12:08:50;;;;;;;;;;;;;;;;;;4926381;29;19958;-80
2023/04/06 12:11:16;;;;;;;;;;;;;;;;;;4927593;29;20295;-80
2023/04/06 12:13:41;;;;;;;;;;;;;;;;;;4931941;29;20131;-80
2023/04/06 12:16:07;;;;;;;;;;;;;;;;;;4920815;29;20290;-80
2023/04/06 12:18:33;;;;;;;;;;;;;;;;;;4932872;29;20402;-80
2023/04/06 12:20:58;;;;;;;;;;;;;;;;;;4925780;29;19941;-80
2023/04/06 12:23:23;;;;;;;;;;;;;;;;;;4925612;29;19919;-79
2023/04/06 12:25:49;;;;;;;;;;;;;;;;;;4933016;29;19915;-80
2023/04/06 12:28:15;;;;;;;;;;;;;;;;;;4934726;29;20434;-80
2023/04/06 12:30:41;;;;;;;;;;;;;;;;;;4923143;29;19999;-80
2023/04/06 12:33:06;;;;;;;;;;;;;;;;;;4928323;29;20403;-80
2023/04/06 12:35:31;;;;;;;;;;;;;;;;;;4925877;23;20363;-87
2023/04/06 12:37:57;;;;;;;;;;;;;;;;;;4917912;29;20334;-86
2023/04/06 12:40:23;;;;;;;;;;;;;;;;;;4908168;29;19961;-86
2023/04/06 12:42:51;;;;;;;;;;;;;;;;;;4901791;29;19915;-85
2023/04/06 12:45:17;;;;;;;;;;;;;;;;;;4914027;29;20343;-86
2023/04/06 12:47:43;;;;;;;;;;;;;;;;;;4890769;29;19949;-86
2023/04/06 12:50:09;;;;;;;;;;;;;;;;;;4884242;29;19920;-85
2023/04/06 12:52:35;;;;;;;;;;;;;;;;;;4893159;29;19912;-85
2023/04/06 12:55:04;;;;;;;;;;;;;;;;;;4881071;29;19916;-84
2023/04/06 12:57:30;;;;;;;;;;;;;;;;;;4897549;29;19920;-84
2023/04/06 12:59:56;;;;;;;;;;;;;;;;;;4872072;29;19927;-84
2023/04/06 13:02:21;;;;;;;;;;;;;;;;;;4906424;29;19959;-83
2023/04/06 13:04:47;;;;;;;;;;;;;;;;;;4890102;29;19916;-84
2023/04/06 13:07:14;;;;;;;;;;;;;;;;;;4893252;29;19915;-84
2023/04/06 13:09:40;;;;;;;;;;;;;;;;;;4863224;29;19919;-84
2023/04/06 13:12:05;;;;;;;;;;;;;;;;;;4870403;29;19923;-86
2023/04/06 13:14:31;;;;;;;;;;;;;;;;;;4865572;29;19939;-85
2023/04/06 13:17:00;;;;;;;;;;;;;;;;;;4860525;29;19920;-85
2023/04/06 13:19:26;;;;;;;;;;;;;;;;;;4873875;29;19920;-84
2023/04/06 13:21:51;;;;;;;;;;;;;;;;;;4881360;29;20042;-85
2023/04/06 13:24:17;;;;;;;;;;;;;;;;;;4870022;29;20430;-84
2023/04/06 13:26:43;;;;;;;;;;;;;;;;;;4863085;29;20395;-85
2023/04/06 13:29:09;;;;;;;;;;;;;;;;;;4873437;29;19966;-84
2023/04/06 13:31:35;;;;;;;;;;;;;;;;;;4870221;29;19982;-85
2023/04/06 13:34:00;;;;;;;;;;;;;;;;;;4863865;29;20371;-85
2023/04/06 13:36:26;;;;;;;;;;;;;;;;;;4867273;29;20085;-84
2023/04/06 13:38:53;;;;;;;;;;;;;;;;;;4875018;29;19920;-85
2023/04/06 13:41:18;;;;;;;;;;;;;;;;;;4874632;29;19915;-84
2023/04/06 13:43:44;;;;;;;;;;;;;;;;;;4854399;29;20349;-84
2023/04/06 13:46:10;;;;;;;;;;;;;;;;;;4879166;29;20446;-84
2023/04/06 13:48:38;;;;;;;;;;;;;;;;;;4869504;29;19920;-85
2023/04/06 13:51:05;;;;;;;;;;;;;;;;;;4889223;29;19922;-84
2023/04/06 13:53:30;;;;;;;;;;;;;;;;;;4891144;29;19915;-84
2023/04/06 13:55:56;;;;;;;;;;;;;;;;;;4882682;29;20288;-84
2023/04/06 13:58:22;;;;;;;;;;;;;;;;;;4879022;29;20299;-83
2023/04/06 14:00:48;;;;;;;;;;;;;;;;;;4885475;29;20379;-84
2023/04/06 14:03:13;;;;;;;;;;;;;;;;;;4871788;29;20455;-84
2023/04/06 14:05:39;;;;;;;;;;;;;;;;;;4891731;29;20442;-84
2023/04/06 14:08:04;;;;;;;;;;;;;;;;;;4881661;29;19955;-83
2023/04/06 14:10:30;;;;;;;;;;;;;;;;;;4878229;29;20435;-84
2023/04/06 14:12:57;;;;;;;;;;;;;;;;;;4887372;29;19933;-84
2023/04/06 14:15:23;;;;;;;;;;;;;;;;;;4870354;29;20006;-84
2023/04/06 14:17:50;;;;;;;;;;;;;;;;;;4893385;29;19927;-84
2023/04/06 14:20:16;;;;;;;;;;;;;;;;;;4864421;29;19916;-84
2023/04/06 14:22:45;;;;;;;;;;;;;;;;;;4869475;29;19923;-84
2023/04/06 14:25:13;;;;;;;;;;;;;;;;;;4871674;29;19916;-83
2023/04/06 14:27:39;;;;;;;;;;;;;;;;;;4861057;29;20021;-84
2023/04/06 14:30:04;;;;;;;;;;;;;;;;;;4865360;29;20399;-84
2023/04/06 14:32:32;;;;;;;;;;;;;;;;;;4868581;29;19927;-85
2023/04/06 14:34:57;;;;;;;;;;;;;;;;;;4890542;29;20184;-84
2023/04/06 14:37:23;;;;;;;;;;;;;;;;;;4889639;29;20356;-85
2023/04/06 14:39:49;;;;;;;;;;;;;;;;;;4882864;29;20288;-84
2023/04/06 14:42:14;;;;;;;;;;;;;;;;;;4895344;29;19915;-85
2023/04/06 14:44:42;;;;;;;;;;;;;;;;;;4885084;29;19915;-85
2023/04/06 14:47:08;;;;;;;;;;;;;;;;;;4888588;29;19916;-83
2023/04/06 14:49:33;;;;;;;;;;;;;;;;;;4875360;29;20273;-84
2023/04/06 14:51:59;;;;;;;;;;;;;;;;;;4866021;29;19920;-86
2023/04/06 14:54:25;;;;;;;;;;;;;;;;;;4877366;29;19916;-85
2023/04/06 14:56:51;;;;;;;;;;;;;;;;;;4854253;29;20010;-84
2023/04/06 14:59:16;;;;;;;;;;;;;;;;;;4855012;29;20055;-85
2023/04/06 15:01:45;;;;;;;;;;;;;;;;;;4893074;29;19955;-86
2023/04/06 15:04:10;;;;;;;;;;;;;;;;;;4880536;29;20002;-83
2023/04/06 15:06:36;;;;;;;;;;;;;;;;;;4874709;29;19923;-84
2023/04/06 15:09:02;;;;;;;;;;;;;;;;;;4854649;29;19919;-84
2023/04/06 15:11:28;;;;;;;;;;;;;;;;;;4853350;29;19920;-84
2023/04/06 15:13:54;;;;;;;;;;;;;;;;;;4893522;29;19938;-84
2023/04/06 15:16:19;;;;;;;;;;;;;;;;;;4879773;29;19938;-84
2023/04/06 15:18:45;;;;;;;;;;;;;;;;;;4890522;29;19920;-83
2023/04/06 15:21:10;;;;;;;;;;;;;;;;;;4886596;29;19915;-83
2023/04/06 15:23:36;;;;;;;;;;;;;;;;;;4867434;29;20299;-82
2023/04/06 15:26:01;;;;;;;;;;;;;;;;;;4846983;29;20011;-84
2023/04/06 15:28:28;;;;;;;;;;;;;;;;;;4861714;29;20319;-85
2023/04/06 15:30:54;;;;;;;;;;;;;;;;;;4886847;29;19916;-86
2023/04/06 15:33:19;;;;;;;;;;;;;;;;;;4881962;29;19920;-84
2023/04/06 15:35:46;;;;;;;;;;;;;;;;;;4868091;29;19974;-85
2023/04/06 15:38:11;;;;;;;;;;;;;;;;;;4878475;29;19972;-85
2023/04/06 15:40:37;;;;;;;;;;;;;;;;;;4868971;29;19916;-86
2023/04/06 15:43:06;;;;;;;;;;;;;;;;;;4882290;29;20531;-84
2023/04/06 15:45:35;;;;;;;;;;;;;;;;;;4853979;29;19927;-86
2023/04/06 15:48:01;;;;;;;;;;;;;;;;;;4881381;29;19915;-85
2023/04/06 15:50:27;;;;;;;;;;;;;;;;;;4868520;29;19922;-86
2023/04/06 15:52:53;;;;;;;;;;;;;;;;;;4898596;29;19919;-86
2023/04/06 15:55:21;;;;;;;;;;;;;;;;;;4887523;29;19916;-86
2023/04/06 15:57:47;;;;;;;;;;;;;;;;;;4893366;29;19930;-86
2023/04/06 16:00:12;;;;;;;;;;;;;;;;;;4851287;29;19922;-86
2023/04/06 16:02:38;;;;;;;;;;;;;;;;;;4861116;29;19916;-85
2023/04/06 16:05:04;;;;;;;;;;;;;;;;;;4862769;29;20006;-86
2023/04/06 16:07:31;;;;;;;;;;;;;;;;;;4890506;29;19926;-86
2023/04/06 16:09:57;;;;;;;;;;;;;;;;;;4865086;29;20052;-84
2023/04/06 16:12:22;;;;;;;;;;;;;;;;;;4895848;29;19975;-85
2023/04/06 16:14:48;;;;;;;;;;;;;;;;;;4888853;29;19972;-83
2023/04/06 16:17:15;;;;;;;;;;;;;;;;;;4886583;29;19975;-84
2023/04/06 16:19:41;;;;;;;;;;;;;;;;;;4853650;29;19920;-84
2023/04/06 16:22:07;;;;;;;;;;;;;;;;;;4895432;29;19968;-83
2023/04/06 16:24:32;;;;;;;;;;;;;;;;;;4868744;29;20430;-83
2023/04/06 16:26:59;;;;;;;;;;;;;;;;;;4859242;29;20310;-85
2023/04/06 16:29:24;;;;;;;;;;;;;;;;;;4860097;29;19920;-84
2023/04/06 16:31:50;;;;;;;;;;;;;;;;;;4886184;29;19962;-84
2023/04/06 16:34:16;;;;;;;;;;;;;;;;;;4896796;29;19923;-85
2023/04/06 16:36:41;;;;;;;;;;;;;;;;;;4870256;29;19919;-85
2023/04/06 16:39:07;;;;;;;;;;;;;;;;;;4874029;29;20384;-84
2023/04/06 16:41:32;;;;;;;;;;;;;;;;;;4893789;29;19915;-84
2023/04/06 16:43:58;;;;;;;;;;;;;;;;;;4867338;29;19927;-83
2023/04/06 16:46:23;;;;;;;;;;;;;;;;;;4894537;29;19922;-83